Terminal Aerodrome Forecast
Issued by NWS Newport/Morehead City, NC

Home | Current Version | Previous Version | Text Only | Print | Product List | Glossary Off
Versions: 1 2 3 4 5 6 7 8 9 10 11 12 13 14 15 16 17 18 19

000
FTUS42 KMHX 292322
TAFEWN
TAF
KEWN 292322Z 3000/3024 20008KT P6SM SCT030 OVC060
     FM300700 20007KT 6SM BR SCT010 BKN025
     FM301500 20012G24KT P6SM BKN035
     FM302200 19012G22KT P6SM VCSH BKN030=

USA.gov is the U.S. government's official web portal to all federal, state and local government web resources and services.